createdAt,value
2018-08-11T00:00:28.902Z,16.29
2018-08-11T00:02:57.573Z,16.20
2018-08-11T00:05:26.175Z,16.15
2018-08-11T00:07:54.768Z,16.04
2018-08-11T00:10:23.362Z,15.76
2018-08-11T00:12:51.928Z,15.36
2018-08-11T00:15:21.219Z,15.03
2018-08-11T00:17:49.842Z,14.77
2018-08-11T00:20:33.082Z,14.64
2018-08-11T00:23:01.636Z,14.47
2018-08-11T00:25:30.505Z,14.31
2018-08-11T00:27:59.129Z,14.26
2018-08-11T00:30:58.010Z,14.22
2018-08-11T00:33:26.559Z,14.20
2018-08-11T00:35:55.059Z,14.25
2018-08-11T00:38:23.526Z,14.26
2018-08-11T00:40:52.013Z,14.25
2018-08-11T00:43:20.527Z,14.25
2018-08-11T00:45:49.101Z,14.23
2018-08-11T00:48:18.111Z,14.24
2018-08-11T00:50:46.690Z,14.25
2018-08-11T00:53:15.292Z,14.24
2018-08-11T00:55:43.868Z,14.25
2018-08-11T00:58:12.410Z,14.26
2018-08-11T01:00:40.882Z,14.28
2018-08-11T01:03:10.521Z,14.30
2018-08-11T01:05:52.089Z,14.32
2018-08-11T01:08:20.589Z,14.32
2018-08-11T01:10:49.062Z,14.31
2018-08-11T01:13:17.663Z,14.32
2018-08-11T01:15:46.257Z,14.32
2018-08-11T01:18:20.448Z,14.35
2018-08-11T01:20:53.784Z,14.37
2018-08-11T01:23:22.253Z,14.37
2018-08-11T01:25:50.801Z,14.36
2018-08-11T01:28:19.257Z,14.33
2018-08-11T01:30:47.819Z,14.32
2018-08-11T01:33:18.622Z,14.29
2018-08-11T01:35:47.174Z,14.28
2018-08-11T01:38:15.756Z,14.31
2018-08-11T01:40:44.249Z,14.38
2018-08-11T01:43:12.782Z,14.45
2018-08-11T01:45:41.334Z,14.50
2018-08-11T01:48:09.924Z,14.52
2018-08-11T01:50:38.498Z,14.53
2018-08-11T01:53:07.072Z,14.53
2018-08-11T01:55:35.563Z,14.52
2018-08-11T01:58:04.028Z,14.49
2018-08-11T02:00:32.513Z,14.45
2018-08-11T02:03:01.045Z,14.44
2018-08-11T02:05:29.622Z,14.38
2018-08-11T02:07:58.098Z,14.32
2018-08-11T02:10:26.648Z,14.28
2018-08-11T02:12:55.118Z,14.22
2018-08-11T02:15:23.635Z,14.18
2018-08-11T02:17:52.139Z,14.14
2018-08-11T02:20:20.678Z,14.07
2018-08-11T02:22:49.953Z,14.03
2018-08-11T02:25:18.452Z,13.99
2018-08-11T02:27:46.944Z,13.95
2018-08-11T02:30:17.426Z,13.91
2018-08-11T02:32:46.351Z,13.87
2018-08-11T02:35:15.243Z,13.84
2018-08-11T02:37:44.337Z,13.81
2018-08-11T02:40:15.426Z,13.76
2018-08-11T02:42:44.025Z,13.73
2018-08-11T02:45:14.333Z,13.74
2018-08-11T02:47:42.839Z,13.72
2018-08-11T02:50:13.309Z,13.72
2018-08-11T02:52:42.315Z,13.69
2018-08-11T02:55:11.008Z,13.68
2018-08-11T02:57:40.690Z,13.70
2018-08-11T03:00:10.921Z,13.71
2018-08-11T03:02:39.458Z,13.73
2018-08-11T03:05:07.974Z,13.73
2018-08-11T03:07:36.832Z,13.72
2018-08-11T03:10:06.539Z,13.73
2018-08-11T03:12:38.676Z,13.72
2018-08-11T03:15:08.446Z,13.72
2018-08-11T03:17:37.084Z,13.68
2018-08-11T03:20:08.215Z,13.68
2018-08-11T03:22:36.771Z,13.66
2018-08-11T03:25:06.716Z,13.64
2018-08-11T03:27:35.285Z,13.66
2018-08-11T03:30:04.213Z,13.64
2018-08-11T03:32:33.085Z,13.65
2018-08-11T03:35:01.553Z,13.67
2018-08-11T03:37:30.134Z,13.63
2018-08-11T03:39:58.609Z,13.60
2018-08-11T03:42:27.155Z,13.57
2018-08-11T03:44:55.625Z,13.55
2018-08-11T03:47:24.574Z,13.57
2018-08-11T03:49:53.157Z,13.53
2018-08-11T03:52:21.737Z,13.51
2018-08-11T03:54:50.219Z,13.52
2018-08-11T03:57:18.716Z,13.51
2018-08-11T03:59:47.293Z,13.53
2018-08-11T04:02:17.646Z,13.54
2018-08-11T04:04:46.169Z,13.51
2018-08-11T04:07:14.698Z,13.45
2018-08-11T04:09:43.169Z,13.43
2018-08-11T04:12:11.633Z,13.45
2018-08-11T04:14:40.865Z,13.49
2018-08-11T04:17:23.763Z,13.49
2018-08-11T04:19:52.200Z,13.45
2018-08-11T04:22:20.928Z,13.48
2018-08-11T04:24:49.412Z,13.48
2018-08-11T04:27:18.003Z,13.48
2018-08-11T04:29:46.477Z,13.51
2018-08-11T04:32:14.951Z,13.53
2018-08-11T04:34:43.465Z,13.51
2018-08-11T04:37:11.948Z,13.52
2018-08-11T04:39:40.596Z,13.51
2018-08-11T04:42:09.065Z,13.53
2018-08-11T04:44:37.606Z,13.54
2018-08-11T04:47:06.129Z,13.54
2018-08-11T04:49:34.639Z,13.55
2018-08-11T04:52:03.153Z,13.58
2018-08-11T04:54:31.732Z,13.59
2018-08-11T04:57:00.174Z,13.60
2018-08-11T04:59:28.774Z,13.60
2018-08-11T05:01:57.553Z,13.63
2018-08-11T05:04:26.028Z,13.65
2018-08-11T05:06:54.519Z,13.69
2018-08-11T05:09:23.218Z,13.71
2018-08-11T05:11:51.861Z,13.72
2018-08-11T05:16:47.008Z,13.80
2018-08-11T05:19:15.498Z,13.84
2018-08-11T05:21:43.939Z,13.86
2018-08-11T05:24:12.602Z,13.91
2018-08-11T05:26:41.199Z,13.94
2018-08-11T05:29:09.752Z,13.97
2018-08-11T05:31:38.203Z,14.01
2018-08-11T05:34:06.811Z,14.04
2018-08-11T05:36:35.409Z,14.09
2018-08-11T05:39:05.065Z,14.13
2018-08-11T05:41:33.599Z,14.18
2018-08-11T05:44:02.170Z,14.23
2018-08-11T05:46:30.743Z,14.31
2018-08-11T05:48:59.263Z,14.32
2018-08-11T05:51:27.807Z,14.38
2018-08-11T05:53:56.432Z,14.39
2018-08-11T05:56:24.934Z,14.40
2018-08-11T05:58:53.557Z,14.45
2018-08-11T06:01:22.056Z,14.49
2018-08-11T06:03:50.588Z,14.52
2018-08-11T06:06:19.122Z,14.55
2018-08-11T06:08:47.706Z,14.62
2018-08-11T06:11:16.259Z,14.66
2018-08-11T06:13:44.701Z,14.72
2018-08-11T06:16:13.377Z,14.77
2018-08-11T06:18:41.936Z,14.79
2018-08-11T06:21:10.479Z,14.81
2018-08-11T06:23:39.106Z,14.87
2018-08-11T06:26:08.022Z,14.88
2018-08-11T06:28:36.661Z,14.92
2018-08-11T06:31:05.325Z,14.97
2018-08-11T06:33:33.849Z,15.00
2018-08-11T06:36:02.355Z,15.03
2018-08-11T06:38:30.833Z,15.10
2018-08-11T06:40:59.566Z,15.15
2018-08-11T06:43:27.854Z,15.22
2018-08-11T06:45:56.396Z,15.30
2018-08-11T06:48:24.882Z,15.32
2018-08-11T06:50:55.112Z,15.38
2018-08-11T06:53:23.613Z,15.44
2018-08-11T06:55:52.062Z,15.49
2018-08-11T06:58:20.677Z,15.54
2018-08-11T07:00:49.193Z,15.58
2018-08-11T07:03:17.665Z,15.62
2018-08-11T07:05:46.174Z,15.67
2018-08-11T07:08:14.866Z,15.73
2018-08-11T07:10:43.534Z,15.81
2018-08-11T07:13:12.024Z,15.87
2018-08-11T07:15:40.589Z,15.92
2018-08-11T07:18:09.105Z,15.97
2018-08-11T07:20:37.681Z,16.02
2018-08-11T07:23:06.320Z,16.06
2018-08-11T07:25:34.968Z,16.16
2018-08-11T07:28:03.564Z,16.23
2018-08-11T07:30:32.210Z,16.30
2018-08-11T07:33:00.846Z,16.33
2018-08-11T07:35:29.402Z,16.31
2018-08-11T07:37:57.973Z,16.35
2018-08-11T07:40:26.546Z,16.43
2018-08-11T07:42:55.128Z,16.53
2018-08-11T07:45:23.712Z,16.62
2018-08-11T07:47:52.296Z,16.73
2018-08-11T07:50:20.908Z,16.82
2018-08-11T07:52:49.361Z,16.89
2018-08-11T07:55:18.048Z,16.92
2018-08-11T07:57:46.648Z,16.90
2018-08-11T08:00:15.247Z,16.94
2018-08-11T08:02:43.973Z,17.02
2018-08-11T08:05:12.633Z,17.22
2018-08-11T08:07:41.291Z,17.35
2018-08-11T08:10:09.820Z,17.44
2018-08-11T08:12:38.467Z,17.46
2018-08-11T08:15:07.424Z,17.47
2018-08-11T08:17:35.960Z,17.45
2018-08-11T08:20:05.174Z,17.71
2018-08-11T08:22:33.752Z,17.88
2018-08-11T08:25:02.295Z,17.86
2018-08-11T08:27:30.764Z,17.90
2018-08-11T08:29:59.389Z,18.05
2018-08-11T08:32:27.953Z,18.04
2018-08-11T08:34:56.522Z,18.02
2018-08-11T08:37:25.116Z,18.06
2018-08-11T08:39:53.814Z,18.25
2018-08-11T08:42:22.422Z,18.23
2018-08-11T08:44:51.060Z,18.25
2018-08-11T08:47:19.511Z,18.11
2018-08-11T08:49:48.068Z,18.04
2018-08-11T08:52:17.012Z,18.05
2018-08-11T08:54:46.116Z,18.05
2018-08-11T08:57:14.943Z,17.94
2018-08-11T08:59:43.697Z,18.10
2018-08-11T09:02:12.158Z,18.43
2018-08-11T09:04:40.811Z,18.74
2018-08-11T09:07:09.291Z,18.91
2018-08-11T09:09:37.937Z,18.94
2018-08-11T09:12:06.805Z,18.83
2018-08-11T09:14:35.240Z,18.91
2018-08-11T09:17:03.691Z,19.06
2018-08-11T09:19:32.308Z,19.11
2018-08-11T09:22:00.856Z,19.28
2018-08-11T09:24:29.425Z,19.11
2018-08-11T09:26:57.909Z,18.74
2018-08-11T09:29:26.393Z,18.48
2018-08-11T09:31:54.994Z,18.42
2018-08-11T09:34:23.599Z,18.52
2018-08-11T09:37:40.154Z,18.67
2018-08-11T09:40:08.785Z,18.93
2018-08-11T09:42:37.347Z,19.09
2018-08-11T09:45:06.262Z,19.17
2018-08-11T09:47:34.800Z,19.23
2018-08-11T09:50:03.357Z,19.39
2018-08-11T09:52:31.818Z,19.48
2018-08-11T09:55:00.566Z,19.24
2018-08-11T09:57:29.161Z,19.13
2018-08-11T09:59:57.666Z,19.36
2018-08-11T10:02:26.341Z,19.54
2018-08-11T10:04:54.816Z,19.71
2018-08-11T10:07:23.380Z,20.00
2018-08-11T10:09:51.863Z,19.95
2018-08-11T10:12:20.365Z,19.66
2018-08-11T10:14:49.001Z,19.28
2018-08-11T10:17:17.503Z,19.29
2018-08-11T10:19:46.113Z,19.66
2018-08-11T10:22:14.788Z,20.10
2018-08-11T10:24:43.268Z,20.12
2018-08-11T10:27:11.864Z,20.08
2018-08-11T10:29:40.433Z,20.44
2018-08-11T10:32:08.965Z,20.59
2018-08-11T10:34:37.499Z,20.51
2018-08-11T10:37:06.069Z,20.72
2018-08-11T10:39:34.572Z,20.83
2018-08-11T10:42:03.059Z,21.07
2018-08-11T10:44:31.639Z,21.07
2018-08-11T10:47:00.114Z,20.64
2018-08-11T10:49:28.690Z,20.20
2018-08-11T10:51:57.243Z,20.05
2018-08-11T10:54:25.859Z,20.07
2018-08-11T10:56:54.477Z,20.57
2018-08-11T10:59:22.921Z,21.04
2018-08-11T11:01:51.519Z,21.23
2018-08-11T11:04:20.229Z,21.17
2018-08-11T11:06:48.813Z,21.45
2018-08-11T11:09:17.358Z,21.67
2018-08-11T11:12:14.445Z,21.70
2018-08-11T11:14:43.000Z,21.53
2018-08-11T11:17:11.460Z,21.21
2018-08-11T11:19:39.931Z,21.06
2018-08-11T11:22:08.458Z,20.89
2018-08-11T11:24:36.928Z,20.83
2018-08-11T11:27:05.665Z,20.93
2018-08-11T11:29:34.404Z,20.90
2018-08-11T11:32:02.928Z,20.73
2018-08-11T11:34:31.507Z,20.62
2018-08-11T11:37:00.078Z,20.92
2018-08-11T11:39:28.654Z,21.28
2018-08-11T11:41:57.282Z,21.73
2018-08-11T11:44:26.021Z,22.27
2018-08-11T11:46:54.585Z,22.66
2018-08-11T11:49:23.112Z,22.20
2018-08-11T11:51:51.572Z,21.73
2018-08-11T11:54:20.068Z,22.06
2018-08-11T11:56:48.648Z,22.59
2018-08-11T11:59:17.217Z,22.28
2018-08-11T12:01:45.783Z,21.79
2018-08-11T12:04:14.349Z,21.51
2018-08-11T12:06:42.852Z,21.86
2018-08-11T12:09:11.862Z,22.62
2018-08-11T12:11:40.657Z,23.18
2018-08-11T12:14:09.425Z,23.16
2018-08-11T12:16:38.124Z,22.41
2018-08-11T12:19:06.838Z,21.90
2018-08-11T12:21:35.501Z,21.78
2018-08-11T12:24:04.036Z,21.57
2018-08-11T12:26:32.512Z,21.38
2018-08-11T12:29:01.004Z,21.31
2018-08-11T12:31:29.533Z,21.73
2018-08-11T12:33:57.999Z,22.60
2018-08-11T12:36:26.651Z,23.37
2018-08-11T12:38:55.369Z,22.92
2018-08-11T12:41:24.128Z,22.57
2018-08-11T12:43:52.750Z,23.20
2018-08-11T12:46:21.326Z,23.91
2018-08-11T12:48:49.814Z,24.35
2018-08-11T12:51:18.384Z,24.82
2018-08-11T12:53:46.906Z,24.95
2018-08-11T12:56:15.868Z,25.05
2018-08-11T12:58:44.329Z,24.93
2018-08-11T13:01:13.080Z,25.01
2018-08-11T13:03:41.630Z,25.00
2018-08-11T13:06:10.310Z,25.16
2018-08-11T13:08:38.818Z,25.29
2018-08-11T13:11:07.467Z,25.17
2018-08-11T13:13:36.169Z,24.01
2018-08-11T13:16:04.768Z,23.27
2018-08-11T13:18:33.377Z,23.25
2018-08-11T13:21:02.227Z,23.94
2018-08-11T13:23:30.963Z,24.69
2018-08-11T13:25:59.553Z,25.28
2018-08-11T13:28:28.063Z,25.47
2018-08-11T13:30:56.671Z,25.69
2018-08-11T13:33:25.671Z,25.86
2018-08-11T13:35:54.344Z,26.05
2018-08-11T13:38:22.929Z,25.74
2018-08-11T13:40:51.504Z,25.99
2018-08-11T13:43:20.082Z,26.04
2018-08-11T13:45:48.681Z,25.29
2018-08-11T13:48:17.499Z,24.48
2018-08-11T13:50:46.383Z,23.77
2018-08-11T13:53:22.324Z,23.23
2018-08-11T13:55:50.888Z,23.14
2018-08-11T13:58:20.040Z,23.18
2018-08-11T14:00:48.787Z,23.15
2018-08-11T14:03:45.343Z,23.02
2018-08-11T14:06:14.133Z,23.58
2018-08-11T14:08:42.678Z,24.17
2018-08-11T14:11:11.576Z,23.73
2018-08-11T14:13:40.321Z,23.26
2018-08-11T14:16:08.998Z,22.96
2018-08-11T14:18:37.638Z,22.89
2018-08-11T14:21:06.513Z,23.32
2018-08-11T14:23:35.004Z,23.16
2018-08-11T14:26:03.971Z,23.19
2018-08-11T14:29:00.366Z,23.15
2018-08-11T14:31:29.340Z,23.14
2018-08-11T14:33:58.223Z,23.20
2018-08-11T14:36:28.884Z,23.82
2018-08-11T14:38:57.847Z,24.35
2018-08-11T14:41:27.400Z,24.45
2018-08-11T14:43:56.174Z,24.07
2018-08-11T14:46:24.740Z,23.68
2018-08-11T14:48:53.546Z,23.88
2018-08-11T14:51:22.238Z,23.94
2018-08-11T14:53:50.891Z,23.53
2018-08-11T14:56:19.564Z,23.61
2018-08-11T14:58:48.059Z,23.96
2018-08-11T15:01:16.634Z,24.56
2018-08-11T15:03:45.539Z,24.88
2018-08-11T15:06:14.084Z,24.53
2018-08-11T15:08:42.834Z,24.06
2018-08-11T15:11:11.620Z,24.22
2018-08-11T15:13:40.398Z,24.26
2018-08-11T15:16:09.020Z,24.21
2018-08-11T15:18:37.957Z,24.21
2018-08-11T15:21:06.584Z,24.58
2018-08-11T15:23:36.745Z,24.71
2018-08-11T15:26:05.346Z,24.84
2018-08-11T15:28:33.888Z,24.66
2018-08-11T15:31:02.553Z,24.54
2018-08-11T15:33:31.188Z,24.80
2018-08-11T15:35:59.776Z,24.61
2018-08-11T15:38:28.427Z,24.46
2018-08-11T15:40:57.245Z,24.63
2018-08-11T15:43:25.963Z,24.60
2018-08-11T15:45:54.527Z,24.53
2018-08-11T15:48:23.354Z,24.06
2018-08-11T15:50:51.872Z,23.55
2018-08-11T15:53:20.376Z,23.25
2018-08-11T15:55:48.862Z,23.32
2018-08-11T15:58:17.450Z,23.40
2018-08-11T16:00:46.210Z,23.39
2018-08-11T16:03:15.069Z,23.19
2018-08-11T16:05:43.680Z,23.16
2018-08-11T16:08:12.283Z,23.50
2018-08-11T16:10:41.089Z,23.71
2018-08-11T16:13:09.931Z,23.88
2018-08-11T16:15:38.600Z,24.03
2018-08-11T16:18:07.141Z,24.08
2018-08-11T16:20:35.900Z,23.99
2018-08-11T16:23:05.372Z,23.98
2018-08-11T16:25:33.914Z,23.97
2018-08-11T16:28:02.702Z,23.78
2018-08-11T16:30:31.701Z,23.61
2018-08-11T16:33:01.586Z,23.52
2018-08-11T16:35:30.117Z,23.53
2018-08-11T16:37:58.922Z,23.35
2018-08-11T16:40:28.107Z,23.33
2018-08-11T16:42:57.132Z,23.28
2018-08-11T16:45:26.336Z,23.27
2018-08-11T16:47:55.839Z,23.24
2018-08-11T16:50:24.673Z,23.26
2018-08-11T16:52:53.109Z,23.20
2018-08-11T16:55:22.070Z,23.07
2018-08-11T16:57:50.744Z,23.07
2018-08-11T17:00:21.064Z,23.01
2018-08-11T17:02:49.692Z,22.83
2018-08-11T17:05:18.528Z,22.72
2018-08-11T17:07:47.115Z,22.74
2018-08-11T17:10:15.932Z,22.80
2018-08-11T17:12:45.078Z,22.87
2018-08-11T17:15:15.303Z,22.93
2018-08-11T17:17:44.090Z,22.89
2018-08-11T17:20:12.589Z,22.79
2018-08-11T17:22:41.345Z,22.66
2018-08-11T17:25:10.763Z,22.65
2018-08-11T17:27:39.200Z,22.60
2018-08-11T17:30:14.975Z,22.58
2018-08-11T17:32:43.877Z,22.58
2018-08-11T17:35:13.101Z,22.48
2018-08-11T17:37:42.644Z,22.47
2018-08-11T17:40:11.107Z,22.50
2018-08-11T17:42:39.670Z,22.60
2018-08-11T17:45:08.253Z,22.78
2018-08-11T17:47:36.756Z,22.70
2018-08-11T17:50:10.780Z,22.63
2018-08-11T17:52:39.726Z,22.55
2018-08-11T17:55:09.736Z,22.39
2018-08-11T17:57:38.634Z,22.27
2018-08-11T18:00:07.704Z,22.12
2018-08-11T18:02:37.256Z,22.06
2018-08-11T18:05:06.284Z,21.93
2018-08-11T18:07:35.128Z,21.80
2018-08-11T18:10:03.757Z,21.68
2018-08-11T18:12:33.781Z,21.55
2018-08-11T18:15:02.868Z,21.36
2018-08-11T18:17:31.640Z,21.17
2018-08-11T18:20:36.032Z,21.06
2018-08-11T18:23:05.479Z,20.74
2018-08-11T18:25:34.051Z,20.67
2018-08-11T18:28:03.011Z,20.54
2018-08-11T18:30:32.029Z,20.39
2018-08-11T18:33:00.859Z,20.24
2018-08-11T18:35:29.875Z,20.07
2018-08-11T18:37:58.784Z,19.92
2018-08-11T18:40:32.259Z,19.76
2018-08-11T18:43:00.768Z,19.62
2018-08-11T18:45:29.272Z,19.49
2018-08-11T18:47:57.840Z,19.32
2018-08-11T18:50:26.784Z,19.18
2018-08-11T18:53:10.665Z,19.02
2018-08-11T18:55:39.806Z,18.84
2018-08-11T18:58:08.281Z,18.70
2018-08-11T19:00:37.239Z,18.57
2018-08-11T19:03:05.937Z,18.42
2018-08-11T19:05:34.530Z,18.32
2018-08-11T19:08:03.968Z,18.21
2018-08-11T19:10:33.161Z,18.08
2018-08-11T19:13:01.724Z,17.96
2018-08-11T19:15:30.193Z,17.85
2018-08-11T19:17:58.881Z,17.72
2018-08-11T19:20:27.581Z,17.59
2018-08-11T19:22:56.757Z,17.49
2018-08-11T19:25:25.956Z,17.39
2018-08-11T19:27:55.121Z,17.26
2018-08-11T19:30:23.776Z,17.18
2018-08-11T19:32:52.772Z,17.09
2018-08-11T19:35:21.274Z,16.99
2018-08-11T19:37:50.718Z,16.90
2018-08-11T19:40:36.970Z,16.81
2018-08-11T19:43:06.068Z,16.69
2018-08-11T19:45:34.962Z,16.61
2018-08-11T19:48:04.147Z,16.53
2018-08-11T19:50:32.992Z,16.47
2018-08-11T19:53:01.577Z,16.40
2018-08-11T19:55:30.541Z,16.32
2018-08-11T19:57:59.477Z,16.25
2018-08-11T20:00:28.815Z,16.19
2018-08-11T20:02:57.371Z,16.14
2018-08-11T20:05:26.246Z,16.00
2018-08-11T20:07:55.396Z,15.93
2018-08-11T20:10:24.811Z,15.90
2018-08-11T20:12:53.626Z,15.86
2018-08-11T20:15:22.121Z,15.80
2018-08-11T20:17:51.363Z,15.68
2018-08-11T20:20:20.341Z,15.60
2018-08-11T20:22:49.495Z,15.47
2018-08-11T20:25:18.072Z,15.30
2018-08-11T20:27:46.704Z,15.21
2018-08-11T20:30:15.632Z,15.22
2018-08-11T20:32:44.231Z,15.18
2018-08-11T20:35:12.800Z,15.15
2018-08-11T20:37:42.130Z,15.12
2018-08-11T20:40:10.755Z,15.10
2018-08-11T20:42:39.410Z,15.01
2018-08-11T20:45:09.164Z,14.92
2018-08-11T20:47:37.953Z,14.85
2018-08-11T20:50:07.255Z,14.84
2018-08-11T20:52:35.805Z,14.78
2018-08-11T20:55:05.041Z,14.72
2018-08-11T20:57:33.619Z,14.66
2018-08-11T21:00:02.221Z,14.57
2018-08-11T21:02:30.748Z,14.55
2018-08-11T21:04:59.362Z,14.50
2018-08-11T21:07:27.912Z,14.46
2018-08-11T21:09:56.517Z,14.41
2018-08-11T21:12:25.133Z,14.41
2018-08-11T21:14:53.908Z,14.41
2018-08-11T21:17:22.481Z,14.36
2018-08-11T21:20:14.951Z,14.32
2018-08-11T21:22:43.514Z,14.27
2018-08-11T21:25:12.522Z,14.20
2018-08-11T21:27:41.081Z,14.19
2018-08-11T21:30:12.013Z,14.12
2018-08-11T21:32:40.835Z,14.03
2018-08-11T21:35:09.832Z,13.96
2018-08-11T21:37:38.423Z,13.93
2018-08-11T21:40:13.008Z,13.93
2018-08-11T21:42:41.939Z,13.95
2018-08-11T21:45:39.073Z,13.95
2018-08-11T21:48:07.657Z,13.94
2018-08-11T21:50:36.189Z,13.89
2018-08-11T21:53:04.804Z,13.84
2018-08-11T21:55:33.538Z,13.86
2018-08-11T21:58:02.104Z,13.86
2018-08-11T22:00:33.852Z,13.86
2018-08-11T22:03:03.596Z,13.82
2018-08-11T22:05:32.254Z,13.80
2018-08-11T22:08:01.726Z,13.77
2018-08-11T22:10:30.626Z,13.78
2018-08-11T22:12:59.395Z,13.78
2018-08-11T22:15:28.285Z,13.77
2018-08-11T22:17:56.909Z,13.77
2018-08-11T22:20:25.509Z,13.73
2018-08-11T22:23:30.144Z,13.68
2018-08-11T22:25:58.678Z,13.63
2018-08-11T22:28:27.203Z,13.60
2018-08-11T22:31:03.907Z,13.53
2018-08-11T22:33:32.564Z,13.44
2018-08-11T22:36:01.162Z,13.44
2018-08-11T22:38:29.711Z,13.50
2018-08-11T22:40:58.285Z,13.51
2018-08-11T22:43:26.897Z,13.51
2018-08-11T22:45:55.491Z,13.51
2018-08-11T22:48:24.075Z,13.51
2018-08-11T22:50:52.652Z,13.44
2018-08-11T22:53:21.250Z,13.39
2018-08-11T22:55:49.769Z,13.36
2018-08-11T22:58:18.509Z,13.34
2018-08-11T23:00:47.093Z,13.30
2018-08-11T23:03:15.629Z,13.33
2018-08-11T23:05:44.159Z,13.34
2018-08-11T23:08:12.708Z,13.31
2018-08-11T23:10:41.312Z,13.28
2018-08-11T23:13:09.872Z,13.33
2018-08-11T23:15:38.577Z,13.35
2018-08-11T23:18:07.164Z,13.34
2018-08-11T23:20:35.689Z,13.35
2018-08-11T23:23:04.321Z,13.39
2018-08-11T23:25:32.913Z,13.37
2018-08-11T23:28:01.502Z,13.36
2018-08-11T23:30:29.953Z,13.28
2018-08-11T23:32:58.570Z,13.26
2018-08-11T23:35:27.068Z,13.23
2018-08-11T23:37:56.879Z,13.26
2018-08-11T23:40:25.430Z,13.31
2018-08-11T23:42:54.072Z,13.30
2018-08-11T23:45:22.605Z,13.30
2018-08-11T23:47:51.195Z,13.33
2018-08-11T23:50:19.772Z,13.37
2018-08-11T23:52:48.549Z,13.37
2018-08-11T23:55:17.054Z,13.41
2018-08-11T23:57:45.646Z,13.47
